sensor_id;sensor_type;location;lat;lon;timestamp;pressure;altitude;pressure_sealevel;temperature;humidity
2184;BME280;1098;48.940;8.962;2022-12-07T00:01:42;98543.78;;;4.45;100.00
2184;BME280;1098;48.940;8.962;2022-12-07T00:04:11;98540.66;;;4.27;100.00
2184;BME280;1098;48.940;8.962;2022-12-07T00:06:40;98545.72;;;4.22;100.00
2184;BME280;1098;48.940;8.962;2022-12-07T00:09:10;98535.97;;;4.29;100.00
2184;BME280;1098;48.940;8.962;2022-12-07T00:11:38;98536.22;;;4.34;100.00
2184;BME280;1098;48.940;8.962;2022-12-07T00:14:06;98538.63;;;4.29;100.00
2184;BME280;1098;48.940;8.962;2022-12-07T00:16:35;98531.78;;;3.83;100.00
2184;BME280;1098;48.940;8.962;2022-12-07T00:19:04;98537.63;;;4.30;100.00
2184;BME280;1098;48.940;8.962;2022-12-07T00:21:33;98532.63;;;3.98;100.00
2184;BME280;1098;48.940;8.962;2022-12-07T00:24:02;98532.56;;;4.06;100.00
2184;BME280;1098;48.940;8.962;2022-12-07T00:26:31;98529.97;;;4.12;100.00
2184;BME280;1098;48.940;8.962;2022-12-07T00:29:02;98533.44;;;4.42;100.00
2184;BME280;1098;48.940;8.962;2022-12-07T00:31:31;98537.81;;;4.14;100.00
2184;BME280;1098;48.940;8.962;2022-12-07T00:34:01;98531.63;;;4.28;100.00
2184;BME280;1098;48.940;8.962;2022-12-07T00:36:31;98529.78;;;4.29;100.00
2184;BME280;1098;48.940;8.962;2022-12-07T00:39:00;98526.63;;;4.25;100.00
2184;BME280;1098;48.940;8.962;2022-12-07T00:41:29;98518.63;;;4.25;100.00
2184;BME280;1098;48.940;8.962;2022-12-07T00:43:57;98519.09;;;3.99;100.00
2184;BME280;1098;48.940;8.962;2022-12-07T00:46:28;98523.28;;;3.50;100.00
2184;BME280;1098;48.940;8.962;2022-12-07T00:48:56;98530.63;;;4.14;100.00
2184;BME280;1098;48.940;8.962;2022-12-07T00:51:24;98528.13;;;4.28;100.00
2184;BME280;1098;48.940;8.962;2022-12-07T00:53:54;98535.69;;;4.24;100.00
2184;BME280;1098;48.940;8.962;2022-12-07T00:56:23;98534.19;;;3.77;100.00
2184;BME280;1098;48.940;8.962;2022-12-07T00:58:52;98531.00;;;4.11;100.00
2184;BME280;1098;48.940;8.962;2022-12-07T01:01:21;98542.78;;;4.02;100.00
2184;BME280;1098;48.940;8.962;2022-12-07T01:03:49;98535.22;;;4.06;100.00
2184;BME280;1098;48.940;8.962;2022-12-07T01:06:18;98540.09;;;3.88;100.00
2184;BME280;1098;48.940;8.962;2022-12-07T01:08:47;98538.38;;;3.95;100.00
2184;BME280;1098;48.940;8.962;2022-12-07T01:11:18;98539.38;;;4.23;100.00
2184;BME280;1098;48.940;8.962;2022-12-07T01:13:46;98537.69;;;4.37;100.00
2184;BME280;1098;48.940;8.962;2022-12-07T01:16:17;98537.06;;;3.91;100.00
2184;BME280;1098;48.940;8.962;2022-12-07T01:18:46;98537.53;;;3.94;100.00
2184;BME280;1098;48.940;8.962;2022-12-07T01:21:15;98540.47;;;3.99;100.00
2184;BME280;1098;48.940;8.962;2022-12-07T01:23:44;98542.03;;;4.08;100.00
2184;BME280;1098;48.940;8.962;2022-12-07T01:26:13;98544.25;;;4.05;100.00
2184;BME280;1098;48.940;8.962;2022-12-07T01:28:44;98542.53;;;3.60;100.00
2184;BME280;1098;48.940;8.962;2022-12-07T01:31:13;98548.00;;;3.96;100.00
2184;BME280;1098;48.940;8.962;2022-12-07T01:33:46;98552.47;;;3.89;100.00
2184;BME280;1098;48.940;8.962;2022-12-07T01:36:15;98556.78;;;3.90;100.00
2184;BME280;1098;48.940;8.962;2022-12-07T01:38:44;98546.28;;;3.88;100.00
2184;BME280;1098;48.940;8.962;2022-12-07T01:41:12;98553.00;;;3.84;100.00
2184;BME280;1098;48.940;8.962;2022-12-07T01:44:06;98556.59;;;3.54;100.00
2184;BME280;1098;48.940;8.962;2022-12-07T01:46:31;98558.72;;;3.43;100.00
2184;BME280;1098;48.940;8.962;2022-12-07T01:48:59;98558.91;;;3.94;100.00
2184;BME280;1098;48.940;8.962;2022-12-07T01:51:28;98562.91;;;3.61;100.00
2184;BME280;1098;48.940;8.962;2022-12-07T01:53:57;98556.91;;;3.59;100.00
2184;BME280;1098;48.940;8.962;2022-12-07T01:56:26;98562.19;;;3.67;100.00
2184;BME280;1098;48.940;8.962;2022-12-07T01:58:54;98558.66;;;3.52;100.00
2184;BME280;1098;48.940;8.962;2022-12-07T02:01:24;98551.50;;;3.82;100.00
2184;BME280;1098;48.940;8.962;2022-12-07T02:03:53;98544.59;;;3.72;100.00
2184;BME280;1098;48.940;8.962;2022-12-07T02:06:22;98549.06;;;3.95;100.00
2184;BME280;1098;48.940;8.962;2022-12-07T02:08:52;98549.69;;;3.97;100.00
2184;BME280;1098;48.940;8.962;2022-12-07T02:11:21;98548.00;;;3.81;100.00
2184;BME280;1098;48.940;8.962;2022-12-07T02:13:49;98546.94;;;3.90;100.00
2184;BME280;1098;48.940;8.962;2022-12-07T02:16:25;98548.59;;;3.54;100.00
2184;BME280;1098;48.940;8.962;2022-12-07T02:18:59;98548.41;;;3.55;100.00
2184;BME280;1098;48.940;8.962;2022-12-07T02:21:30;98545.72;;;3.40;100.00
2184;BME280;1098;48.940;8.962;2022-12-07T02:24:06;98546.41;;;3.57;100.00
2184;BME280;1098;48.940;8.962;2022-12-07T02:29:28;98534.13;;;3.10;100.00
2184;BME280;1098;48.940;8.962;2022-12-07T02:32:00;98531.97;;;3.29;100.00
2184;BME280;1098;48.940;8.962;2022-12-07T02:34:34;98537.41;;;3.13;100.00
2184;BME280;1098;48.940;8.962;2022-12-07T02:37:08;98534.34;;;3.01;100.00
2184;BME280;1098;48.940;8.962;2022-12-07T02:39:40;98538.25;;;3.13;100.00
2184;BME280;1098;48.940;8.962;2022-12-07T02:42:12;98527.53;;;3.59;100.00
2184;BME280;1098;48.940;8.962;2022-12-07T02:44:43;98539.03;;;2.99;100.00
2184;BME280;1098;48.940;8.962;2022-12-07T02:47:12;98535.97;;;2.87;100.00
2184;BME280;1098;48.940;8.962;2022-12-07T02:49:42;98532.09;;;3.13;100.00
2184;BME280;1098;48.940;8.962;2022-12-07T02:52:10;98525.00;;;3.05;100.00
2184;BME280;1098;48.940;8.962;2022-12-07T02:54:38;98529.88;;;3.39;100.00
2184;BME280;1098;48.940;8.962;2022-12-07T02:57:11;98528.44;;;2.91;100.00
2184;BME280;1098;48.940;8.962;2022-12-07T02:59:46;98526.06;;;3.33;100.00
2184;BME280;1098;48.940;8.962;2022-12-07T03:02:20;98522.34;;;3.20;100.00
2184;BME280;1098;48.940;8.962;2022-12-07T03:04:52;98526.28;;;3.09;100.00
2184;BME280;1098;48.940;8.962;2022-12-07T03:07:29;98525.53;;;3.38;100.00
2184;BME280;1098;48.940;8.962;2022-12-07T03:10:01;98520.69;;;2.96;100.00
2184;BME280;1098;48.940;8.962;2022-12-07T03:12:32;98493.97;;;2.81;100.00
2184;BME280;1098;48.940;8.962;2022-12-07T03:15:06;98518.69;;;2.98;100.00
2184;BME280;1098;48.940;8.962;2022-12-07T03:17:36;98516.16;;;3.04;100.00
2184;BME280;1098;48.940;8.962;2022-12-07T03:20:09;98509.84;;;2.97;100.00
2184;BME280;1098;48.940;8.962;2022-12-07T03:22:39;98511.31;;;3.23;100.00
2184;BME280;1098;48.940;8.962;2022-12-07T03:25:10;98509.38;;;3.17;100.00
2184;BME280;1098;48.940;8.962;2022-12-07T03:27:40;98510.56;;;3.14;100.00
2184;BME280;1098;48.940;8.962;2022-12-07T03:30:14;98513.44;;;3.50;100.00
2184;BME280;1098;48.940;8.962;2022-12-07T03:32:45;98504.75;;;3.48;100.00
2184;BME280;1098;48.940;8.962;2022-12-07T03:35:16;98504.34;;;3.74;100.00
2184;BME280;1098;48.940;8.962;2022-12-07T03:37:47;98498.13;;;3.44;100.00
2184;BME280;1098;48.940;8.962;2022-12-07T03:40:18;98495.03;;;3.85;100.00
2184;BME280;1098;48.940;8.962;2022-12-07T03:42:49;98490.06;;;3.82;100.00
2184;BME280;1098;48.940;8.962;2022-12-07T03:45:19;98491.84;;;3.37;100.00
2184;BME280;1098;48.940;8.962;2022-12-07T03:47:51;98484.13;;;3.04;100.00
2184;BME280;1098;48.940;8.962;2022-12-07T03:50:25;98477.66;;;2.99;100.00
2184;BME280;1098;48.940;8.962;2022-12-07T03:52:56;98464.81;;;3.17;100.00
2184;BME280;1098;48.940;8.962;2022-12-07T03:55:27;98466.13;;;3.21;100.00
2184;BME280;1098;48.940;8.962;2022-12-07T03:57:56;98467.78;;;3.37;100.00
2184;BME280;1098;48.940;8.962;2022-12-07T04:00:28;98465.03;;;3.30;100.00
2184;BME280;1098;48.940;8.962;2022-12-07T04:02:57;98467.19;;;3.64;100.00
2184;BME280;1098;48.940;8.962;2022-12-07T04:05:25;98474.22;;;3.95;100.00
2184;BME280;1098;48.940;8.962;2022-12-07T04:07:54;98464.66;;;4.22;100.00
2184;BME280;1098;48.940;8.962;2022-12-07T04:10:22;98460.75;;;3.73;100.00
2184;BME280;1098;48.940;8.962;2022-12-07T04:12:50;98461.84;;;3.64;100.00
2184;BME280;1098;48.940;8.962;2022-12-07T04:15:18;98454.38;;;3.45;100.00
2184;BME280;1098;48.940;8.962;2022-12-07T04:17:48;98434.19;;;3.28;100.00
2184;BME280;1098;48.940;8.962;2022-12-07T04:20:16;98450.41;;;3.56;100.00
2184;BME280;1098;48.940;8.962;2022-12-07T04:22:44;98453.06;;;3.26;100.00
2184;BME280;1098;48.940;8.962;2022-12-07T04:25:12;98459.13;;;3.35;100.00
2184;BME280;1098;48.940;8.962;2022-12-07T04:27:40;98471.34;;;3.15;100.00
2184;BME280;1098;48.940;8.962;2022-12-07T04:30:08;98465.00;;;3.16;100.00
2184;BME280;1098;48.940;8.962;2022-12-07T04:32:37;98473.13;;;3.22;100.00
2184;BME280;1098;48.940;8.962;2022-12-07T04:35:06;98479.56;;;2.90;100.00
2184;BME280;1098;48.940;8.962;2022-12-07T04:37:35;98477.78;;;3.05;100.00
2184;BME280;1098;48.940;8.962;2022-12-07T04:40:03;98474.47;;;3.18;100.00
2184;BME280;1098;48.940;8.962;2022-12-07T04:42:31;98483.25;;;2.89;100.00
2184;BME280;1098;48.940;8.962;2022-12-07T04:45:00;98477.28;;;3.02;100.00
2184;BME280;1098;48.940;8.962;2022-12-07T04:47:28;98476.91;;;2.90;100.00
2184;BME280;1098;48.940;8.962;2022-12-07T04:49:56;98484.66;;;2.77;100.00
2184;BME280;1098;48.940;8.962;2022-12-07T04:52:25;98476.41;;;2.87;100.00
2184;BME280;1098;48.940;8.962;2022-12-07T04:54:53;98485.81;;;2.52;100.00
2184;BME280;1098;48.940;8.962;2022-12-07T04:57:21;98483.34;;;2.73;100.00
2184;BME280;1098;48.940;8.962;2022-12-07T04:59:49;98488.81;;;2.80;100.00
2184;BME280;1098;48.940;8.962;2022-12-07T05:02:17;98481.09;;;2.62;100.00
2184;BME280;1098;48.940;8.962;2022-12-07T05:04:45;98483.72;;;2.70;100.00
2184;BME280;1098;48.940;8.962;2022-12-07T05:07:13;98495.97;;;2.79;100.00
2184;BME280;1098;48.940;8.962;2022-12-07T05:09:45;98493.34;;;2.71;100.00
2184;BME280;1098;48.940;8.962;2022-12-07T05:12:14;98492.69;;;3.15;100.00
2184;BME280;1098;48.940;8.962;2022-12-07T05:14:42;98491.66;;;2.78;100.00
2184;BME280;1098;48.940;8.962;2022-12-07T05:17:10;98493.63;;;2.84;100.00
2184;BME280;1098;48.940;8.962;2022-12-07T05:19:41;98498.50;;;2.72;100.00
2184;BME280;1098;48.940;8.962;2022-12-07T05:22:09;98489.63;;;2.57;100.00
2184;BME280;1098;48.940;8.962;2022-12-07T05:24:37;98494.81;;;2.51;100.00
2184;BME280;1098;48.940;8.962;2022-12-07T05:27:06;98487.78;;;2.81;100.00
2184;BME280;1098;48.940;8.962;2022-12-07T05:29:35;98481.19;;;2.46;100.00
2184;BME280;1098;48.940;8.962;2022-12-07T05:32:03;98476.63;;;2.54;100.00
2184;BME280;1098;48.940;8.962;2022-12-07T05:34:31;98476.81;;;2.53;100.00
2184;BME280;1098;48.940;8.962;2022-12-07T05:36:59;98477.56;;;2.38;100.00
2184;BME280;1098;48.940;8.962;2022-12-07T05:39:27;98483.22;;;2.44;100.00
2184;BME280;1098;48.940;8.962;2022-12-07T05:41:55;98477.81;;;2.52;100.00
2184;BME280;1098;48.940;8.962;2022-12-07T05:44:44;98482.63;;;2.56;100.00
2184;BME280;1098;48.940;8.962;2022-12-07T05:47:12;98481.19;;;2.46;100.00
2184;BME280;1098;48.940;8.962;2022-12-07T05:49:41;98487.53;;;2.45;100.00
2184;BME280;1098;48.940;8.962;2022-12-07T05:52:09;98484.97;;;2.51;100.00
2184;BME280;1098;48.940;8.962;2022-12-07T05:54:37;98486.25;;;3.09;100.00
2184;BME280;1098;48.940;8.962;2022-12-07T05:57:05;98473.75;;;2.87;100.00
2184;BME280;1098;48.940;8.962;2022-12-07T05:59:33;98478.59;;;2.83;100.00
2184;BME280;1098;48.940;8.962;2022-12-07T06:02:02;98479.75;;;2.89;100.00
2184;BME280;1098;48.940;8.962;2022-12-07T06:04:32;98477.78;;;3.05;100.00
2184;BME280;1098;48.940;8.962;2022-12-07T06:07:00;98474.59;;;2.87;100.00
2184;BME280;1098;48.940;8.962;2022-12-07T06:09:30;98475.25;;;2.89;100.00
2184;BME280;1098;48.940;8.962;2022-12-07T06:11:59;98480.75;;;3.10;100.00
2184;BME280;1098;48.940;8.962;2022-12-07T06:14:45;98480.09;;;3.08;100.00
2184;BME280;1098;48.940;8.962;2022-12-07T06:17:14;98473.56;;;3.11;100.00
2184;BME280;1098;48.940;8.962;2022-12-07T06:19:43;98471.13;;;2.79;100.00
2184;BME280;1098;48.940;8.962;2022-12-07T06:22:11;98467.19;;;3.12;100.00
2184;BME280;1098;48.940;8.962;2022-12-07T06:24:39;98465.25;;;3.06;100.00
2184;BME280;1098;48.940;8.962;2022-12-07T06:27:08;98471.06;;;3.09;100.00
2184;BME280;1098;48.940;8.962;2022-12-07T06:29:36;98465.13;;;2.76;100.00
2184;BME280;1098;48.940;8.962;2022-12-07T06:32:04;98466.97;;;2.99;100.00
2184;BME280;1098;48.940;8.962;2022-12-07T06:34:34;98470.06;;;2.88;100.00
2184;BME280;1098;48.940;8.962;2022-12-07T06:37:02;98463.25;;;3.23;100.00
2184;BME280;1098;48.940;8.962;2022-12-07T06:39:30;98464.75;;;2.88;100.00
2184;BME280;1098;48.940;8.962;2022-12-07T06:41:58;98469.81;;;2.97;100.00
2184;BME280;1098;48.940;8.962;2022-12-07T06:44:26;98466.84;;;2.92;100.00
2184;BME280;1098;48.940;8.962;2022-12-07T06:46:54;98467.53;;;3.32;100.00
2184;BME280;1098;48.940;8.962;2022-12-07T06:49:44;98466.84;;;2.92;100.00
2184;BME280;1098;48.940;8.962;2022-12-07T06:52:12;98458.66;;;2.94;100.00
2184;BME280;1098;48.940;8.962;2022-12-07T06:54:40;98452.69;;;3.29;100.00
2184;BME280;1098;48.940;8.962;2022-12-07T06:57:08;98451.69;;;3.45;100.00
2184;BME280;1098;48.940;8.962;2022-12-07T06:59:37;98457.78;;;3.01;100.00
2184;BME280;1098;48.940;8.962;2022-12-07T07:02:05;98458.59;;;3.39;100.00
2184;BME280;1098;48.940;8.962;2022-12-07T07:04:33;98459.53;;;3.32;100.00
2184;BME280;1098;48.940;8.962;2022-12-07T07:07:05;98461.19;;;3.48;100.00
2184;BME280;1098;48.940;8.962;2022-12-07T07:09:33;98461.84;;;3.64;100.00
2184;BME280;1098;48.940;8.962;2022-12-07T07:12:01;98460.44;;;3.54;100.00
2184;BME280;1098;48.940;8.962;2022-12-07T07:14:29;98457.16;;;3.81;100.00
2184;BME280;1098;48.940;8.962;2022-12-07T07:16:57;98459.22;;;3.27;100.00
2184;BME280;1098;48.940;8.962;2022-12-07T07:19:25;98457.22;;;3.29;100.00
2184;BME280;1098;48.940;8.962;2022-12-07T07:21:53;98456.59;;;3.56;100.00
2184;BME280;1098;48.940;8.962;2022-12-07T07:24:23;98461.53;;;3.30;100.00
2184;BME280;1098;48.940;8.962;2022-12-07T07:26:52;98465.94;;;3.23;100.00
2184;BME280;1098;48.940;8.962;2022-12-07T07:29:20;98461.16;;;3.33;100.00
2184;BME280;1098;48.940;8.962;2022-12-07T07:31:48;98474.41;;;3.26;100.00
2184;BME280;1098;48.940;8.962;2022-12-07T07:34:16;98464.25;;;3.74;100.00
2184;BME280;1098;48.940;8.962;2022-12-07T07:36:44;98470.13;;;3.55;100.00
2184;BME280;1098;48.940;8.962;2022-12-07T07:39:12;98463.22;;;3.60;100.00
2184;BME280;1098;48.940;8.962;2022-12-07T07:41:42;98465.78;;;3.54;100.00
2184;BME280;1098;48.940;8.962;2022-12-07T07:44:13;98473.19;;;3.66;100.00
2184;BME280;1098;48.940;8.962;2022-12-07T07:46:41;98469.03;;;3.78;100.00
2184;BME280;1098;48.940;8.962;2022-12-07T07:49:09;98468.72;;;4.18;100.00
2184;BME280;1098;48.940;8.962;2022-12-07T07:51:38;98476.78;;;3.73;100.00
2184;BME280;1098;48.940;8.962;2022-12-07T07:54:06;98478.13;;;3.40;100.00
2184;BME280;1098;48.940;8.962;2022-12-07T07:56:34;98472.25;;;4.03;100.00
2184;BME280;1098;48.940;8.962;2022-12-07T07:59:04;98478.06;;;3.48;100.00
2184;BME280;1098;48.940;8.962;2022-12-07T08:01:32;98480.09;;;3.75;100.00
2184;BME280;1098;48.940;8.962;2022-12-07T08:04:00;98479.25;;;3.75;100.00
2184;BME280;1098;48.940;8.962;2022-12-07T08:06:28;98478.69;;;3.50;100.00
2184;BME280;1098;48.940;8.962;2022-12-07T08:08:58;98486.78;;;3.57;100.00
2184;BME280;1098;48.940;8.962;2022-12-07T08:11:26;98489.84;;;4.27;100.00
2184;BME280;1098;48.940;8.962;2022-12-07T08:13:54;98480.94;;;3.91;100.00
2184;BME280;1098;48.940;8.962;2022-12-07T08:16:26;98482.03;;;3.82;100.00
2184;BME280;1098;48.940;8.962;2022-12-07T08:18:55;98488.00;;;4.28;100.00
2184;BME280;1098;48.940;8.962;2022-12-07T08:21:23;98490.84;;;4.26;100.00
2184;BME280;1098;48.940;8.962;2022-12-07T08:23:51;98491.78;;;4.33;100.00
2184;BME280;1098;48.940;8.962;2022-12-07T08:26:19;98482.28;;;4.67;100.00
2184;BME280;1098;48.940;8.962;2022-12-07T08:28:47;98487.53;;;4.75;100.00
2184;BME280;1098;48.940;8.962;2022-12-07T08:31:15;98489.38;;;4.74;100.00
2184;BME280;1098;48.940;8.962;2022-12-07T08:33:46;98489.84;;;4.27;100.00
2184;BME280;1098;48.940;8.962;2022-12-07T08:36:15;98497.69;;;4.65;100.00
2184;BME280;1098;48.940;8.962;2022-12-07T08:38:44;98496.56;;;4.74;100.00
2184;BME280;1098;48.940;8.962;2022-12-07T08:41:32;98499.22;;;4.53;100.00
2184;BME280;1098;48.940;8.962;2022-12-07T08:44:00;98500.16;;;4.30;100.00
2184;BME280;1098;48.940;8.962;2022-12-07T08:46:29;98498.31;;;4.16;100.00
2184;BME280;1098;48.940;8.962;2022-12-07T08:49:03;98494.22;;;4.49;100.00
2184;BME280;1098;48.940;8.962;2022-12-07T08:51:34;98500.19;;;4.16;100.00
2184;BME280;1098;48.940;8.962;2022-12-07T08:54:04;98498.66;;;4.42;100.00
2184;BME280;1098;48.940;8.962;2022-12-07T08:56:33;98500.59;;;4.48;100.00
2184;BME280;1098;48.940;8.962;2022-12-07T08:59:01;98497.78;;;4.21;100.00
2184;BME280;1098;48.940;8.962;2022-12-07T09:01:30;98509.41;;;4.64;100.00
2184;BME280;1098;48.940;8.962;2022-12-07T09:03:58;98503.19;;;4.42;100.00
2184;BME280;1098;48.940;8.962;2022-12-07T09:06:30;98499.25;;;4.59;100.00
2184;BME280;1098;48.940;8.962;2022-12-07T09:08:59;98501.38;;;4.64;100.00
2184;BME280;1098;48.940;8.962;2022-12-07T09:11:29;98492.19;;;4.52;100.00
2184;BME280;1098;48.940;8.962;2022-12-07T09:13:57;98499.41;;;4.51;100.00
2184;BME280;1098;48.940;8.962;2022-12-07T09:16:25;98495.84;;;4.29;100.00
2184;BME280;1098;48.940;8.962;2022-12-07T09:18:53;98495.53;;;4.54;100.00
2184;BME280;1098;48.940;8.962;2022-12-07T09:21:22;98501.75;;;4.61;100.00
2184;BME280;1098;48.940;8.962;2022-12-07T09:23:51;98500.31;;;4.43;100.00
2184;BME280;1098;48.940;8.962;2022-12-07T09:26:19;98502.22;;;4.64;100.00
2184;BME280;1098;48.940;8.962;2022-12-07T09:28:47;98497.59;;;4.58;100.00
2184;BME280;1098;48.940;8.962;2022-12-07T09:31:15;98501.75;;;4.61;100.00
2184;BME280;1098;48.940;8.962;2022-12-07T09:33:53;98505.72;;;4.65;100.00
2184;BME280;1098;48.940;8.962;2022-12-07T09:36:21;98509.00;;;4.45;100.00
2184;BME280;1098;48.940;8.962;2022-12-07T09:38:50;98511.91;;;4.14;100.00
2184;BME280;1098;48.940;8.962;2022-12-07T09:41:19;98505.53;;;4.16;100.00
2184;BME280;1098;48.940;8.962;2022-12-07T09:43:48;98509.13;;;4.59;100.00
2184;BME280;1098;48.940;8.962;2022-12-07T09:46:17;98477.91;;;4.44;100.00
2184;BME280;1098;48.940;8.962;2022-12-07T09:48:47;98506.22;;;4.54;100.00
2184;BME280;1098;48.940;8.962;2022-12-07T09:51:20;98506.72;;;4.64;100.00
2184;BME280;1098;48.940;8.962;2022-12-07T09:53:52;98501.50;;;4.56;100.00
2184;BME280;1098;48.940;8.962;2022-12-07T09:56:21;98500.78;;;4.47;100.00
2184;BME280;1098;48.940;8.962;2022-12-07T09:58:51;98494.69;;;4.53;100.00
2184;BME280;1098;48.940;8.962;2022-12-07T10:01:22;98490.53;;;4.51;100.00
2184;BME280;1098;48.940;8.962;2022-12-07T10:03:54;98493.84;;;4.53;100.00
2184;BME280;1098;48.940;8.962;2022-12-07T10:06:23;98488.03;;;5.06;100.00
2184;BME280;1098;48.940;8.962;2022-12-07T10:08:51;98491.13;;;4.67;100.00
2184;BME280;1098;48.940;8.962;2022-12-07T10:11:19;98474.13;;;4.75;100.00
2184;BME280;1098;48.940;8.962;2022-12-07T10:13:50;98482.53;;;4.72;100.00
2184;BME280;1098;48.940;8.962;2022-12-07T10:22:00;98466.78;;;4.83;100.00
2184;BME280;1098;48.940;8.962;2022-12-07T10:24:29;98469.00;;;4.59;100.00
2184;BME280;1098;48.940;8.962;2022-12-07T10:26:57;98476.59;;;4.55;100.00
2184;BME280;1098;48.940;8.962;2022-12-07T10:29:29;98467.34;;;4.36;100.00
2184;BME280;1098;48.940;8.962;2022-12-07T10:31:58;98474.56;;;4.78;100.00
2184;BME280;1098;48.940;8.962;2022-12-07T10:34:28;98476.97;;;4.52;100.00
2184;BME280;1098;48.940;8.962;2022-12-07T10:37:17;98473.75;;;4.42;100.00
2184;BME280;1098;48.940;8.962;2022-12-07T10:39:47;98478.47;;;4.40;100.00
2184;BME280;1098;48.940;8.962;2022-12-07T10:42:16;98477.72;;;4.46;100.00
2184;BME280;1098;48.940;8.962;2022-12-07T10:44:47;98480.06;;;4.34;100.00
2184;BME280;1098;48.940;8.962;2022-12-07T10:47:20;98482.66;;;4.64;100.00
2184;BME280;1098;48.940;8.962;2022-12-07T10:50:02;98468.78;;;4.39;100.00
2184;BME280;1098;48.940;8.962;2022-12-07T10:52:42;98466.38;;;3.93;100.00
2184;BME280;1098;48.940;8.962;2022-12-07T10:55:18;98464.09;;;4.62;100.00
2184;BME280;1098;48.940;8.962;2022-12-07T10:57:55;98457.72;;;4.42;100.00
2184;BME280;1098;48.940;8.962;2022-12-07T11:00:29;98456.63;;;4.36;100.00
2184;BME280;1098;48.940;8.962;2022-12-07T11:03:05;98455.16;;;4.19;100.00
2184;BME280;1098;48.940;8.962;2022-12-07T11:05:36;98456.38;;;4.31;100.00
2184;BME280;1098;48.940;8.962;2022-12-07T11:08:10;98446.84;;;4.65;100.00
2184;BME280;1098;48.940;8.962;2022-12-07T11:10:43;98440.91;;;4.12;100.00
2184;BME280;1098;48.940;8.962;2022-12-07T11:13:25;98438.59;;;4.45;100.00
2184;BME280;1098;48.940;8.962;2022-12-07T11:16:01;98443.22;;;4.72;100.00
2184;BME280;1098;48.940;8.962;2022-12-07T11:18:34;98435.19;;;4.51;100.00
2184;BME280;1098;48.940;8.962;2022-12-07T11:21:07;98433.75;;;4.34;100.00
2184;BME280;1098;48.940;8.962;2022-12-07T11:23:40;98431.25;;;4.68;100.00
2184;BME280;1098;48.940;8.962;2022-12-07T11:26:14;98432.72;;;4.71;100.00
2184;BME280;1098;48.940;8.962;2022-12-07T11:28:56;98402.38;;;4.64;100.00
2184;BME280;1098;48.940;8.962;2022-12-07T11:31:32;98424.41;;;4.87;100.00
2184;BME280;1098;48.940;8.962;2022-12-07T11:34:06;98419.09;;;5.15;100.00
2184;BME280;1098;48.940;8.962;2022-12-07T11:36:37;98421.22;;;5.20;100.00
2184;BME280;1098;48.940;8.962;2022-12-07T11:39:10;98423.13;;;4.62;100.00
2184;BME280;1098;48.940;8.962;2022-12-07T11:41:39;98398.88;;;5.12;100.00
2184;BME280;1098;48.940;8.962;2022-12-07T11:44:14;98411.44;;;5.12;100.00
2184;BME280;1098;48.940;8.962;2022-12-07T11:46:56;98412.56;;;5.24;100.00
2184;BME280;1098;48.940;8.962;2022-12-07T11:49:27;98408.91;;;5.32;100.00
2184;BME280;1098;48.940;8.962;2022-12-07T11:52:01;98407.31;;;5.37;100.00
2184;BME280;1098;48.940;8.962;2022-12-07T11:54:32;98401.44;;;5.55;100.00
2184;BME280;1098;48.940;8.962;2022-12-07T11:57:04;98404.56;;;5.03;100.00
2184;BME280;1098;48.940;8.962;2022-12-07T11:59:36;98407.59;;;5.21;100.00
2184;BME280;1098;48.940;8.962;2022-12-07T12:02:11;98394.00;;;5.23;100.00
2184;BME280;1098;48.940;8.962;2022-12-07T12:04:45;98392.72;;;5.40;100.00
2184;BME280;1098;48.940;8.962;2022-12-07T12:07:16;98387.88;;;5.29;100.00
2184;BME280;1098;48.940;8.962;2022-12-07T12:10:06;98381.88;;;5.27;100.00
2184;BME280;1098;48.940;8.962;2022-12-07T12:12:50;98386.59;;;5.25;100.00
2184;BME280;1098;48.940;8.962;2022-12-07T12:15:45;98385.06;;;5.37;100.00
2184;BME280;1098;48.940;8.962;2022-12-07T12:18:38;98390.81;;;5.34;100.00
2184;BME280;1098;48.940;8.962;2022-12-07T12:21:08;98375.97;;;4.82;100.00
2184;BME280;1098;48.940;8.962;2022-12-07T12:23:39;98381.94;;;5.05;100.00
2184;BME280;1098;48.940;8.962;2022-12-07T12:26:13;98388.47;;;4.96;100.00
2184;BME280;1098;48.940;8.962;2022-12-07T12:28:49;98374.44;;;4.94;100.00
2184;BME280;1098;48.940;8.962;2022-12-07T12:31:28;98375.22;;;5.16;100.00
2184;BME280;1098;48.940;8.962;2022-12-07T12:34:00;98371.69;;;4.88;100.00
2184;BME280;1098;48.940;8.962;2022-12-07T12:36:43;98376.22;;;4.87;100.00
2184;BME280;1098;48.940;8.962;2022-12-07T12:39:12;98373.16;;;4.90;100.00
2184;BME280;1098;48.940;8.962;2022-12-07T12:41:54;98379.13;;;5.13;100.00
2184;BME280;1098;48.940;8.962;2022-12-07T12:47:41;98371.00;;;4.79;100.00
2184;BME280;1098;48.940;8.962;2022-12-07T12:50:22;98372.41;;;4.96;100.00
2184;BME280;1098;48.940;8.962;2022-12-07T13:03:53;98355.44;;;4.89;100.00
2184;BME280;1098;48.940;8.962;2022-12-07T13:06:32;98355.84;;;4.86;100.00
2184;BME280;1098;48.940;8.962;2022-12-07T13:09:15;98360.81;;;4.68;100.00
2184;BME280;1098;48.940;8.962;2022-12-07T13:11:45;98354.63;;;4.89;100.00
2184;BME280;1098;48.940;8.962;2022-12-07T13:17:03;98347.81;;;4.65;100.00
2184;BME280;1098;48.940;8.962;2022-12-07T13:25:23;98344.44;;;5.05;100.00
2184;BME280;1098;48.940;8.962;2022-12-07T13:27:57;98340.28;;;4.96;100.00
2184;BME280;1098;48.940;8.962;2022-12-07T13:30:28;98345.00;;;4.94;100.00
2184;BME280;1098;48.940;8.962;2022-12-07T13:32:58;98332.31;;;4.81;100.00
2184;BME280;1098;48.940;8.962;2022-12-07T13:35:30;98325.88;;;4.97;100.00
2184;BME280;1098;48.940;8.962;2022-12-07T13:37:58;98324.38;;;5.23;100.00
2184;BME280;1098;48.940;8.962;2022-12-07T13:40:28;98328.44;;;5.12;100.00
2184;BME280;1098;48.940;8.962;2022-12-07T13:42:57;98328.41;;;5.40;100.00
2184;BME280;1098;48.940;8.962;2022-12-07T13:45:26;98326.88;;;4.96;100.00
2184;BME280;1098;48.940;8.962;2022-12-07T13:48:16;98323.84;;;5.06;100.00
2184;BME280;1098;48.940;8.962;2022-12-07T13:50:54;98323.88;;;4.78;100.00
2184;BME280;1098;48.940;8.962;2022-12-07T13:53:24;98327.00;;;4.60;100.00
2184;BME280;1098;48.940;8.962;2022-12-07T13:55:58;98327.78;;;4.82;100.00
2184;BME280;1098;48.940;8.962;2022-12-07T13:58:27;98331.47;;;4.32;100.00
2184;BME280;1098;48.940;8.962;2022-12-07T14:00:57;98336.75;;;4.46;100.00
2184;BME280;1098;48.940;8.962;2022-12-07T14:03:29;98335.81;;;4.54;100.00
2184;BME280;1098;48.940;8.962;2022-12-07T14:06:06;98336.81;;;4.74;100.00
2184;BME280;1098;48.940;8.962;2022-12-07T14:08:35;98332.81;;;4.42;100.00
2184;BME280;1098;48.940;8.962;2022-12-07T14:11:05;98346.00;;;4.44;100.00
2184;BME280;1098;48.940;8.962;2022-12-07T14:13:37;98336.06;;;4.38;100.00